Time;durP1;ratioP1;P1;durP2;ratioP2;P2;SDS_P1;SDS_P2;PMS_P1;PMS_P2;Temp;Humidity;BMP_temperature;BMP_pressure;BME280_temperature;BME280_humidity;BME280_pressure;Samples;Min_cycle;Max_cycle;Signal;HPM_P1;HPM_P2
2021/06/28 00:02:12;;;;;;;;;;;25.40;99.90;;;;;;1954746;72;20251;-89
2021/06/28 00:04:42;;;;;;;;;;;25.40;99.90;;;;;;1953010;72;20228;-89
2021/06/28 00:07:11;;;;;;;;;;;25.50;99.90;;;;;;1948383;72;20573;-89
2021/06/28 00:09:41;;;;;;;;;;;25.50;99.90;;;;;;1953174;72;20295;-90
2021/06/28 00:12:15;;;;;;;;;;;25.40;99.90;;;;;;1935169;72;20167;-90
2021/06/28 00:14:47;;;;;;;;;;;25.40;99.90;;;;;;1905168;73;20482;-89
2021/06/28 00:17:16;;;;;;;;;;;25.50;99.90;;;;;;1915062;73;20504;-90
2021/06/28 00:19:46;;;;;;;;;;;25.50;99.90;;;;;;1890830;73;20181;-89
2021/06/28 00:22:19;;;;;;;;;;;25.50;99.90;;;;;;1926043;72;20160;-91
2021/06/28 00:24:49;;;;;;;;;;;25.50;99.90;;;;;;1940641;72;20093;-89
2021/06/28 00:27:23;;;;;;;;;;;25.50;99.90;;;;;;1898096;74;20222;-89
2021/06/28 00:29:53;;;;;;;;;;;25.50;99.90;;;;;;1901673;74;20232;-89
2021/06/28 00:32:26;;;;;;;;;;;25.60;99.90;;;;;;1890261;75;20165;-90
2021/06/28 00:34:59;;;;;;;;;;;25.60;99.90;;;;;;1913342;74;20249;-90
2021/06/28 00:37:32;;;;;;;;;;;25.60;99.90;;;;;;1887583;73;20130;-91
2021/06/28 00:40:03;;;;;;;;;;;25.60;99.90;;;;;;1923062;73;20124;-90
2021/06/28 00:42:33;;;;;;;;;;;25.60;99.90;;;;;;1972640;71;20167;-90
2021/06/28 00:45:03;;;;;;;;;;;25.60;99.90;;;;;;1974896;70;20206;-89
2021/06/28 00:47:35;;;;;;;;;;;25.60;99.90;;;;;;1930413;71;20203;-89
2021/06/28 00:50:04;;;;;;;;;;;25.70;99.90;;;;;;1966913;72;20369;-88
2021/06/28 00:52:34;;;;;;;;;;;25.70;99.90;;;;;;1980265;70;20226;-90
2021/06/28 00:55:23;;;;;;;;;;;25.70;99.90;;;;;;1962417;71;20215;-89
2021/06/28 01:00:52;;;;;;;;;;;25.70;99.90;;;;;;1965047;71;20214;-76
2021/06/28 01:03:22;;;;;;;;;;;25.70;99.90;;;;;;1972313;70;20216;-75
2021/06/28 01:05:51;;;;;;;;;;;25.70;99.90;;;;;;1939465;73;20123;-76
2021/06/28 01:08:22;;;;;;;;;;;25.70;99.90;;;;;;1970078;71;20223;-76
2021/06/28 01:10:52;;;;;;;;;;;25.70;99.90;;;;;;1968358;71;20180;-76
2021/06/28 01:13:26;;;;;;;;;;;25.70;99.90;;;;;;1984367;70;20195;-76
2021/06/28 01:15:56;;;;;;;;;;;25.70;99.90;;;;;;1950370;72;20419;-76
2021/06/28 01:18:27;;;;;;;;;;;25.70;99.90;;;;;;1966633;72;20144;-76
2021/06/28 01:20:57;;;;;;;;;;;25.70;99.90;;;;;;1945982;72;20196;-76
2021/06/28 01:23:28;;;;;;;;;;;25.70;99.90;;;;;;1943727;72;20452;-76
2021/06/28 01:25:59;;;;;;;;;;;25.70;99.90;;;;;;1986066;71;20185;-75
2021/06/28 01:28:29;;;;;;;;;;;25.70;99.90;;;;;;1962796;72;20219;-75
2021/06/28 01:30:59;;;;;;;;;;;25.80;99.90;;;;;;1923121;72;20195;-76
2021/06/28 01:33:29;;;;;;;;;;;25.80;99.90;;;;;;1971112;70;20202;-76
2021/06/28 01:35:59;;;;;;;;;;;25.80;99.90;;;;;;1958371;72;20174;-75
2021/06/28 01:38:30;;;;;;;;;;;25.90;99.90;;;;;;1966506;72;20268;-76
2021/06/28 01:40:59;;;;;;;;;;;26.00;99.90;;;;;;1974336;72;20716;-78
2021/06/28 01:43:29;;;;;;;;;;;26.00;99.90;;;;;;1958818;72;20432;-75
2021/06/28 01:45:59;;;;;;;;;;;26.00;99.90;;;;;;1959051;70;20107;-76
2021/06/28 01:48:29;;;;;;;;;;;26.10;99.90;;;;;;1965175;70;20125;-74
2021/06/28 01:50:59;;;;;;;;;;;26.10;99.90;;;;;;1930572;73;20190;-75
2021/06/28 01:53:29;;;;;;;;;;;26.20;99.90;;;;;;1930229;72;20210;-74
2021/06/28 01:56:04;;;;;;;;;;;26.20;99.90;;;;;;1925939;72;20224;-75
2021/06/28 01:58:31;;;;;;;;;;;26.20;99.90;;;;;;1944423;73;20247;-76
2021/06/28 02:01:00;;;;;;;;;;;26.30;99.90;;;;;;1952279;72;20236;-75
2021/06/28 02:03:31;;;;;;;;;;;26.30;99.90;;;;;;1951940;72;20135;-76
2021/06/28 02:06:01;;;;;;;;;;;26.30;99.90;;;;;;1958086;71;20189;-75
2021/06/28 02:08:32;;;;;;;;;;;26.40;99.90;;;;;;1962875;72;20220;-77
2021/06/28 02:11:02;;;;;;;;;;;26.50;99.90;;;;;;1957419;71;20147;-77
2021/06/28 02:13:34;;;;;;;;;;;26.50;99.90;;;;;;1931094;72;20159;-76
2021/06/28 02:16:04;;;;;;;;;;;26.50;99.90;;;;;;1888600;75;20270;-77
2021/06/28 02:18:34;;;;;;;;;;;26.50;99.90;;;;;;1888779;75;20221;-77
2021/06/28 02:21:04;;;;;;;;;;;26.60;99.90;;;;;;1976799;70;20242;-77
2021/06/28 02:23:35;;;;;;;;;;;26.70;99.90;;;;;;1971495;71;20188;-76
2021/06/28 02:26:06;;;;;;;;;;;26.70;99.90;;;;;;1966504;71;20128;-76
2021/06/28 02:28:37;;;;;;;;;;;26.70;99.90;;;;;;1980867;71;20122;-77
2021/06/28 02:31:08;;;;;;;;;;;26.80;99.90;;;;;;1958153;72;20200;-77
2021/06/28 02:33:38;;;;;;;;;;;26.80;99.90;;;;;;1981312;71;20452;-76
2021/06/28 02:36:09;;;;;;;;;;;26.80;99.90;;;;;;1955987;72;20428;-76
2021/06/28 02:38:39;;;;;;;;;;;26.90;99.90;;;;;;1982984;70;20168;-76
2021/06/28 02:41:10;;;;;;;;;;;26.90;99.90;;;;;;1963215;71;20210;-75
2021/06/28 02:43:41;;;;;;;;;;;27.00;99.90;;;;;;1978156;70;20277;-76
2021/06/28 02:46:12;;;;;;;;;;;27.10;99.90;;;;;;1973154;70;20195;-76
2021/06/28 02:48:42;;;;;;;;;;;27.10;99.90;;;;;;1962308;72;20368;-76
2021/06/28 02:51:13;;;;;;;;;;;27.20;99.90;;;;;;1959733;72;20211;-76
2021/06/28 02:53:43;;;;;;;;;;;27.30;99.90;;;;;;1968564;72;20506;-76
2021/06/28 02:56:13;;;;;;;;;;;27.30;99.90;;;;;;1958593;72;20192;-76
2021/06/28 02:58:43;;;;;;;;;;;27.40;99.90;;;;;;1960638;70;20429;-75
2021/06/28 03:01:14;;;;;;;;;;;27.50;99.90;;;;;;1980644;70;20185;-76
2021/06/28 03:03:44;;;;;;;;;;;27.50;99.90;;;;;;1970263;72;20122;-76
2021/06/28 03:06:14;;;;;;;;;;;27.50;99.90;;;;;;1972224;72;20186;-75
2021/06/28 03:08:44;;;;;;;;;;;27.50;99.90;;;;;;1972725;70;20148;-75
2021/06/28 03:11:15;;;;;;;;;;;27.50;99.90;;;;;;1981149;72;20216;-75
2021/06/28 03:13:45;;;;;;;;;;;27.60;99.90;;;;;;1953257;72;20245;-75
2021/06/28 03:16:14;;;;;;;;;;;27.60;99.90;;;;;;1949875;72;20539;-76
2021/06/28 03:18:44;;;;;;;;;;;27.60;99.90;;;;;;1969981;72;20279;-76
2021/06/28 03:21:14;;;;;;;;;;;27.70;99.90;;;;;;1941631;72;20182;-75
2021/06/28 03:23:44;;;;;;;;;;;27.70;99.90;;;;;;1903975;73;20162;-75
2021/06/28 03:26:14;;;;;;;;;;;27.80;99.90;;;;;;1977251;71;20185;-75
2021/06/28 03:28:43;;;;;;;;;;;27.80;99.90;;;;;;1981217;70;20122;-74
2021/06/28 03:31:13;;;;;;;;;;;27.90;99.90;;;;;;1979657;72;20226;-75
2021/06/28 03:33:43;;;;;;;;;;;28.00;99.90;;;;;;1981893;72;20480;-76
2021/06/28 03:36:12;;;;;;;;;;;27.90;99.90;;;;;;1984918;70;20252;-76
2021/06/28 03:38:44;;;;;;;;;;;28.00;99.90;;;;;;1978201;71;20192;-75
2021/06/28 03:41:14;;;;;;;;;;;28.00;99.90;;;;;;1979984;70;20169;-76
2021/06/28 03:43:44;;;;;;;;;;;28.00;99.90;;;;;;1991583;70;20181;-76
2021/06/28 03:46:13;;;;;;;;;;;28.10;99.90;;;;;;1991396;70;20212;-77
2021/06/28 03:48:44;;;;;;;;;;;28.10;99.90;;;;;;1951708;73;20201;-76
2021/06/28 03:51:14;;;;;;;;;;;28.20;99.90;;;;;;1959136;72;20172;-76
2021/06/28 03:53:44;;;;;;;;;;;28.20;99.90;;;;;;1942618;72;20181;-76
2021/06/28 03:56:14;;;;;;;;;;;28.30;99.90;;;;;;1967002;72;20280;-76
2021/06/28 03:58:45;;;;;;;;;;;28.40;99.90;;;;;;1935581;72;20125;-76
2021/06/28 04:01:14;;;;;;;;;;;28.50;99.90;;;;;;1972965;72;20132;-76
2021/06/28 04:03:44;;;;;;;;;;;28.70;99.50;;;;;;1963490;70;20127;-76
2021/06/28 04:06:13;;;;;;;;;;;28.80;98.90;;;;;;1989430;70;20202;-76
2021/06/28 04:08:43;;;;;;;;;;;28.80;98.80;;;;;;1990558;70;20177;-76
2021/06/28 04:11:13;;;;;;;;;;;28.90;98.90;;;;;;1973630;72;20251;-76
2021/06/28 04:13:43;;;;;;;;;;;28.90;99.10;;;;;;1987482;70;20498;-76
2021/06/28 04:16:13;;;;;;;;;;;28.90;98.90;;;;;;1992385;70;20188;-75
2021/06/28 04:18:43;;;;;;;;;;;28.90;98.30;;;;;;1969745;70;20215;-75
2021/06/28 04:21:13;;;;;;;;;;;28.90;98.10;;;;;;1964823;70;20197;-76
2021/06/28 04:23:43;;;;;;;;;;;28.80;98.00;;;;;;1983242;70;20188;-77
2021/06/28 04:26:13;;;;;;;;;;;28.80;98.30;;;;;;1984597;70;20271;-76
2021/06/28 04:28:43;;;;;;;;;;;28.80;98.40;;;;;;1985663;72;20183;-76
2021/06/28 04:31:13;;;;;;;;;;;28.80;98.80;;;;;;1956710;72;20251;-75
2021/06/28 04:33:43;;;;;;;;;;;28.90;98.80;;;;;;1963015;71;20179;-75
2021/06/28 04:36:12;;;;;;;;;;;28.90;98.80;;;;;;1969877;72;20160;-76
2021/06/28 04:38:43;;;;;;;;;;;28.90;99.00;;;;;;1980956;70;20439;-76
2021/06/28 04:41:13;;;;;;;;;;;29.00;98.50;;;;;;1964609;70;20156;-76
2021/06/28 04:43:42;;;;;;;;;;;29.10;98.50;;;;;;1975926;71;20200;-76
2021/06/28 04:46:12;;;;;;;;;;;29.10;98.40;;;;;;1947183;72;20171;-75
2021/06/28 04:48:42;;;;;;;;;;;29.20;97.90;;;;;;1959613;72;20118;-76
2021/06/28 04:51:11;;;;;;;;;;;29.30;97.50;;;;;;1963978;70;20228;-74
2021/06/28 04:53:41;;;;;;;;;;;29.40;97.80;;;;;;1984440;72;20169;-75
2021/06/28 04:56:11;;;;;;;;;;;29.40;97.70;;;;;;1970949;71;20116;-74
2021/06/28 04:58:41;;;;;;;;;;;29.40;97.50;;;;;;1972902;70;20105;-75
2021/06/28 05:01:11;;;;;;;;;;;29.40;97.70;;;;;;1982117;72;20120;-76
2021/06/28 05:03:41;;;;;;;;;;;29.40;97.00;;;;;;1977876;70;20148;-76
2021/06/28 05:06:11;;;;;;;;;;;29.40;96.80;;;;;;1982357;72;20342;-75
2021/06/28 05:08:41;;;;;;;;;;;29.40;96.90;;;;;;1958517;70;20258;-75
2021/06/28 05:11:10;;;;;;;;;;;29.40;97.30;;;;;;1972388;70;20118;-75
2021/06/28 05:13:40;;;;;;;;;;;29.40;97.00;;;;;;1968170;71;20165;-76
2021/06/28 05:16:10;;;;;;;;;;;29.40;96.70;;;;;;1963526;72;20167;-76
2021/06/28 05:18:39;;;;;;;;;;;29.40;96.50;;;;;;1965820;70;20215;-76
2021/06/28 05:21:09;;;;;;;;;;;29.40;96.70;;;;;;1965523;71;20249;-76
2021/06/28 05:23:38;;;;;;;;;;;29.40;96.80;;;;;;1970672;72;20179;-76
2021/06/28 05:26:08;;;;;;;;;;;29.30;96.70;;;;;;1967146;72;20232;-76
2021/06/28 05:28:38;;;;;;;;;;;29.30;96.70;;;;;;1965322;71;20206;-75
2021/06/28 05:31:12;;;;;;;;;;;29.40;96.60;;;;;;1962966;72;20556;-77
2021/06/28 05:33:39;;;;;;;;;;;29.30;96.80;;;;;;1967965;72;20210;-76
2021/06/28 05:36:08;;;;;;;;;;;29.40;96.70;;;;;;1977636;71;20199;-77
2021/06/28 05:38:38;;;;;;;;;;;29.40;96.40;;;;;;1960693;71;20136;-76
2021/06/28 05:41:08;;;;;;;;;;;29.40;96.50;;;;;;1958255;71;20203;-76
2021/06/28 05:43:38;;;;;;;;;;;29.50;96.60;;;;;;1966979;71;20122;-76
2021/06/28 05:46:09;;;;;;;;;;;29.50;96.60;;;;;;1892509;72;20420;-77
2021/06/28 05:48:39;;;;;;;;;;;29.60;96.60;;;;;;1895961;74;20123;-76
2021/06/28 05:51:09;;;;;;;;;;;29.60;96.30;;;;;;1877698;74;20196;-76
2021/06/28 05:53:42;;;;;;;;;;;29.60;95.60;;;;;;1919699;73;20135;-76
2021/06/28 05:56:10;;;;;;;;;;;29.60;95.50;;;;;;1932175;73;20201;-77
2021/06/28 05:58:40;;;;;;;;;;;29.60;95.80;;;;;;1936070;72;20211;-76
2021/06/28 06:01:10;;;;;;;;;;;29.70;96.50;;;;;;1918836;72;20126;-76
2021/06/28 06:03:39;;;;;;;;;;;29.70;95.20;;;;;;1918385;73;20127;-75
2021/06/28 06:06:09;;;;;;;;;;;29.70;95.30;;;;;;1918871;73;20605;-76
2021/06/28 06:08:40;;;;;;;;;;;29.80;95.20;;;;;;1882499;74;20215;-76
2021/06/28 06:11:09;;;;;;;;;;;29.90;95.40;;;;;;1929505;71;20124;-76
2021/06/28 06:13:39;;;;;;;;;;;30.00;95.20;;;;;;1934555;72;20164;-78
2021/06/28 06:16:09;;;;;;;;;;;30.10;95.20;;;;;;1920258;72;21786;-77
2021/06/28 06:18:39;;;;;;;;;;;30.20;94.90;;;;;;1909544;72;20162;-77
2021/06/28 06:21:09;;;;;;;;;;;30.20;94.30;;;;;;1885464;74;20162;-77
2021/06/28 06:23:39;;;;;;;;;;;30.30;94.40;;;;;;1898690;74;20233;-77
2021/06/28 06:26:11;;;;;;;;;;;30.30;94.90;;;;;;1933780;72;20210;-77
2021/06/28 06:28:41;;;;;;;;;;;30.40;93.80;;;;;;1919944;72;20271;-77
2021/06/28 06:31:12;;;;;;;;;;;30.50;93.00;;;;;;1921957;73;20120;-78
2021/06/28 06:33:44;;;;;;;;;;;30.50;93.10;;;;;;1964682;72;20193;-76
2021/06/28 06:36:14;;;;;;;;;;;30.50;92.90;;;;;;1942793;72;20131;-77
2021/06/28 06:38:45;;;;;;;;;;;30.50;93.00;;;;;;1951924;72;20138;-76
2021/06/28 06:41:16;;;;;;;;;;;30.50;93.20;;;;;;1930768;72;20178;-77
2021/06/28 06:43:46;;;;;;;;;;;30.50;92.70;;;;;;1946701;72;20327;-77
2021/06/28 06:46:16;;;;;;;;;;;30.50;92.30;;;;;;1946010;72;20519;-76
2021/06/28 06:48:46;;;;;;;;;;;30.50;92.30;;;;;;1950878;72;20152;-77
2021/06/28 06:51:17;;;;;;;;;;;30.60;91.80;;;;;;1971124;71;20181;-76
2021/06/28 06:54:07;;;;;;;;;;;30.60;91.70;;;;;;1970393;70;20149;-77
2021/06/28 06:56:38;;;;;;;;;;;30.70;91.30;;;;;;1880124;75;20246;-77
2021/06/28 06:59:07;;;;;;;;;;;30.80;91.70;;;;;;1891901;74;20197;-77
2021/06/28 07:01:40;;;;;;;;;;;30.90;90.80;;;;;;1889834;73;20184;-79
2021/06/28 07:04:08;;;;;;;;;;;30.90;90.80;;;;;;1883398;74;20524;-78
2021/06/28 07:06:38;;;;;;;;;;;30.90;90.60;;;;;;1895049;73;20212;-78
2021/06/28 07:09:08;;;;;;;;;;;30.90;91.00;;;;;;1902648;73;20220;-78
2021/06/28 07:11:38;;;;;;;;;;;31.00;90.80;;;;;;1888516;73;20127;-78
2021/06/28 07:14:08;;;;;;;;;;;31.00;90.30;;;;;;1898011;74;20236;-77
2021/06/28 07:16:40;;;;;;;;;;;31.00;90.50;;;;;;1881880;74;20142;-77
2021/06/28 07:19:11;;;;;;;;;;;31.00;90.40;;;;;;1869744;75;20210;-78
2021/06/28 07:21:40;;;;;;;;;;;30.90;90.60;;;;;;1872468;75;20215;-77
2021/06/28 07:24:10;;;;;;;;;;;30.90;90.70;;;;;;1872673;74;20253;-78
2021/06/28 07:26:40;;;;;;;;;;;30.80;90.90;;;;;;1875098;75;20293;-77
2021/06/28 07:29:10;;;;;;;;;;;30.80;90.90;;;;;;1872921;75;20180;-76
2021/06/28 07:31:40;;;;;;;;;;;30.80;91.10;;;;;;1890637;75;20189;-76
2021/06/28 07:34:10;;;;;;;;;;;30.90;91.20;;;;;;1885214;74;20494;-77
2021/06/28 07:36:39;;;;;;;;;;;30.90;90.70;;;;;;1823490;76;20268;-76
2021/06/28 07:39:09;;;;;;;;;;;31.00;91.00;;;;;;1883555;75;20189;-75
2021/06/28 07:41:39;;;;;;;;;;;31.00;90.50;;;;;;1882972;75;20153;-77
2021/06/28 07:44:10;;;;;;;;;;;31.00;90.50;;;;;;1880645;75;20378;-77
2021/06/28 07:46:45;;;;;;;;;;;31.00;90.70;;;;;;1858761;76;20175;-77
2021/06/28 07:49:10;;;;;;;;;;;31.10;90.60;;;;;;1898109;73;20177;-77
2021/06/28 07:51:40;;;;;;;;;;;31.10;90.60;;;;;;1894762;74;20138;-76
2021/06/28 07:54:15;;;;;;;;;;;31.10;91.20;;;;;;1884264;74;20221;-78
2021/06/28 07:56:42;;;;;;;;;;;31.10;90.40;;;;;;1886318;75;20211;-76
2021/06/28 07:59:12;;;;;;;;;;;31.20;90.40;;;;;;1888481;75;20174;-77
2021/06/28 08:01:42;;;;;;;;;;;31.20;90.50;;;;;;1871418;75;20441;-76
2021/06/28 08:04:12;;;;;;;;;;;31.10;90.60;;;;;;1865505;75;20176;-77
2021/06/28 08:06:44;;;;;;;;;;;31.10;90.70;;;;;;1872546;74;20269;-77
2021/06/28 08:09:14;;;;;;;;;;;31.10;90.80;;;;;;1864757;75;20225;-76
2021/06/28 08:11:44;;;;;;;;;;;31.10;90.50;;;;;;1878319;75;20535;-76
2021/06/28 08:14:14;;;;;;;;;;;31.10;90.60;;;;;;1899828;74;20206;-76
2021/06/28 08:16:44;;;;;;;;;;;31.00;90.70;;;;;;1879663;74;20247;-76
2021/06/28 08:19:14;;;;;;;;;;;31.00;90.60;;;;;;1858533;74;20168;-77
2021/06/28 08:21:45;;;;;;;;;;;31.00;90.30;;;;;;1888068;75;20165;-77
2021/06/28 08:24:15;;;;;;;;;;;31.00;90.10;;;;;;1894558;74;20479;-77
2021/06/28 08:26:45;;;;;;;;;;;31.00;89.40;;;;;;1892364;74;20156;-77
2021/06/28 08:29:15;;;;;;;;;;;31.00;88.50;;;;;;1893670;74;20150;-76
2021/06/28 08:31:47;;;;;;;;;;;31.00;88.40;;;;;;1889643;74;20273;-76
2021/06/28 08:34:20;;;;;;;;;;;31.00;88.80;;;;;;1872200;75;20201;-77
2021/06/28 08:36:51;;;;;;;;;;;31.00;89.30;;;;;;1878695;73;20248;-77
2021/06/28 08:39:21;;;;;;;;;;;31.10;88.50;;;;;;1901282;73;20175;-77
2021/06/28 08:41:55;;;;;;;;;;;31.00;87.70;;;;;;1894561;74;20191;-77
2021/06/28 08:44:25;;;;;;;;;;;31.10;87.80;;;;;;1881896;74;20609;-76
2021/06/28 08:46:55;;;;;;;;;;;31.20;88.60;;;;;;1881950;73;20238;-78
2021/06/28 08:49:25;;;;;;;;;;;31.20;88.10;;;;;;1894237;74;20224;-77
2021/06/28 08:51:54;;;;;;;;;;;31.30;87.40;;;;;;1881107;74;20110;-76
2021/06/28 08:54:24;;;;;;;;;;;31.30;87.60;;;;;;1887201;74;20497;-78
2021/06/28 08:56:54;;;;;;;;;;;31.30;87.10;;;;;;1895151;73;20265;-76
2021/06/28 08:59:24;;;;;;;;;;;31.30;87.50;;;;;;1895585;74;20117;-76
2021/06/28 09:01:54;;;;;;;;;;;31.20;87.50;;;;;;1892273;73;20640;-76
2021/06/28 09:04:24;;;;;;;;;;;31.20;88.00;;;;;;1881155;74;20182;-77
2021/06/28 09:06:54;;;;;;;;;;;31.20;88.30;;;;;;1897822;73;20211;-77
2021/06/28 09:09:25;;;;;;;;;;;31.20;87.50;;;;;;1867675;75;20623;-76
2021/06/28 09:11:55;;;;;;;;;;;31.20;87.10;;;;;;1882528;73;20168;-77
2021/06/28 09:14:26;;;;;;;;;;;31.20;87.30;;;;;;1879805;74;20197;-76
2021/06/28 09:16:56;;;;;;;;;;;31.20;87.20;;;;;;1828318;77;20139;-76
2021/06/28 09:19:26;;;;;;;;;;;31.30;86.40;;;;;;1893701;74;20203;-77
2021/06/28 09:21:57;;;;;;;;;;;31.20;86.40;;;;;;1897116;74;20153;-76
2021/06/28 09:24:30;;;;;;;;;;;31.20;87.00;;;;;;1885185;73;20220;-77
2021/06/28 09:27:02;;;;;;;;;;;31.20;87.60;;;;;;1880250;74;20198;-77
2021/06/28 09:29:33;;;;;;;;;;;31.20;86.20;;;;;;1828358;76;20139;-76
2021/06/28 09:32:04;;;;;;;;;;;31.20;86.40;;;;;;1856800;75;20199;-77
2021/06/28 09:34:34;;;;;;;;;;;31.20;86.20;;;;;;1898280;73;20471;-77
2021/06/28 09:37:04;;;;;;;;;;;31.20;86.90;;;;;;1885020;75;20485;-77
2021/06/28 09:39:38;;;;;;;;;;;31.20;86.70;;;;;;1897003;74;20170;-77
2021/06/28 09:42:08;;;;;;;;;;;31.20;86.30;;;;;;1886056;75;20258;-75
2021/06/28 09:44:39;;;;;;;;;;;31.10;86.50;;;;;;1894392;73;20223;-77
2021/06/28 09:47:28;;;;;;;;;;;31.10;86.80;;;;;;1898885;74;20219;-76
2021/06/28 09:49:59;;;;;;;;;;;31.10;86.50;;;;;;1878049;73;20507;-76
2021/06/28 09:52:30;;;;;;;;;;;31.10;86.80;;;;;;1856144;76;20161;-77
2021/06/28 09:55:01;;;;;;;;;;;31.00;87.10;;;;;;1835824;76;20730;-77
2021/06/28 09:57:30;;;;;;;;;;;31.00;87.50;;;;;;1843165;76;20253;-76
2021/06/28 10:00:00;;;;;;;;;;;31.00;87.10;;;;;;1828834;76;20429;-77
2021/06/28 10:02:30;;;;;;;;;;;30.90;86.60;;;;;;1828841;76;20304;-76
2021/06/28 10:05:12;;;;;;;;;;;30.90;86.20;;;;;;1831034;77;20749;-77
2021/06/28 10:07:34;;;;;;;;;;;30.90;86.40;;;;;;1866814;75;20209;-76
2021/06/28 10:10:05;;;;;;;;;;;31.00;86.70;;;;;;1846631;75;20252;-75
2021/06/28 10:12:35;;;;;;;;;;;31.00;87.00;;;;;;1856925;76;20201;-77
2021/06/28 10:15:06;;;;;;;;;;;31.00;87.10;;;;;;1870819;75;20191;-77
2021/06/28 10:17:36;;;;;;;;;;;31.00;86.90;;;;;;1868682;75;20152;-78
2021/06/28 10:20:07;;;;;;;;;;;31.00;86.50;;;;;;1868018;75;20254;-77
2021/06/28 10:22:38;;;;;;;;;;;31.00;86.70;;;;;;1878994;74;20249;-76
2021/06/28 10:25:08;;;;;;;;;;;31.00;86.30;;;;;;1898653;74;20138;-77
2021/06/28 10:27:38;;;;;;;;;;;30.90;86.80;;;;;;1899807;73;20574;-77
2021/06/28 10:30:09;;;;;;;;;;;30.90;86.90;;;;;;1885934;74;20229;-76
2021/06/28 10:32:40;;;;;;;;;;;30.90;86.90;;;;;;1852414;74;20746;-77
2021/06/28 10:35:12;;;;;;;;;;;30.80;87.40;;;;;;1845899;76;20182;-78
2021/06/28 10:37:43;;;;;;;;;;;30.90;87.70;;;;;;1835140;77;20234;-75
2021/06/28 10:40:14;;;;;;;;;;;30.80;87.90;;;;;;1838280;77;20281;-76
2021/06/28 10:42:45;;;;;;;;;;;30.80;88.20;;;;;;1839943;76;20154;-92
2021/06/28 10:45:16;;;;;;;;;;;30.80;88.50;;;;;;1827386;77;20250;-91
2021/06/28 10:47:51;;;;;;;;;;;30.80;88.60;;;;;;1838956;76;20267;-91
2021/06/28 10:50:21;;;;;;;;;;;30.70;89.30;;;;;;1843766;77;20218;-93
2021/06/28 10:52:55;;;;;;;;;;;30.70;89.10;;;;;;1838931;77;20170;-90
2021/06/28 10:55:41;;;;;;;;;;;30.60;89.40;;;;;;1833889;76;20186;-92
2021/06/28 10:58:12;;;;;;;;;;;30.60;89.30;;;;;;1876341;75;20177;-91
2021/06/28 11:00:44;;;;;;;;;;;30.60;89.70;;;;;;1869151;75;20404;-92
2021/06/28 11:03:36;;;;;;;;;;;30.60;89.90;;;;;;1901156;73;20478;-91
2021/06/28 11:06:00;;;;;;;;;;;30.50;90.00;;;;;;1861139;75;20191;-92
2021/06/28 11:08:41;;;;;;;;;;;30.60;90.20;;;;;;1833671;75;20271;-91
2021/06/28 11:11:12;;;;;;;;;;;30.50;90.20;;;;;;1830576;76;20170;-92
2021/06/28 11:13:43;;;;;;;;;;;30.50;89.90;;;;;;1823993;77;20124;-92
2021/06/28 11:16:14;;;;;;;;;;;30.50;89.80;;;;;;1832216;75;20162;-90
2021/06/28 11:18:44;;;;;;;;;;;30.50;89.90;;;;;;1838016;76;20182;-92
2021/06/28 11:21:15;;;;;;;;;;;30.40;89.70;;;;;;1894761;74;20205;-92
2021/06/28 11:23:46;;;;;;;;;;;30.40;89.80;;;;;;1897062;74;20385;-91
2021/06/28 11:26:19;;;;;;;;;;;30.40;89.70;;;;;;1890241;74;20183;-92
2021/06/28 11:28:50;;;;;;;;;;;30.30;90.00;;;;;;1885775;74;20489;-91
2021/06/28 11:31:21;;;;;;;;;;;30.30;90.00;;;;;;1892216;73;20160;-89
2021/06/28 11:33:54;;;;;;;;;;;30.30;90.10;;;;;;1852774;75;20186;-91
2021/06/28 11:36:25;;;;;;;;;;;30.30;90.20;;;;;;1871626;75;20203;-92
2021/06/28 11:39:02;;;;;;;;;;;30.20;90.10;;;;;;1897284;73;20220;-92
2021/06/28 11:41:34;;;;;;;;;;;30.20;90.30;;;;;;1893929;74;20209;-87
2021/06/28 11:44:05;;;;;;;;;;;30.20;90.20;;;;;;1892009;74;20197;-90
2021/06/28 11:46:42;;;;;;;;;;;30.20;90.40;;;;;;1868447;74;20188;-91
2021/06/28 11:49:12;;;;;;;;;;;30.20;90.40;;;;;;1882494;75;20380;-91
2021/06/28 11:52:00;;;;;;;;;;;30.20;90.40;;;;;;1869973;73;20200;-91
2021/06/28 11:54:34;;;;;;;;;;;30.10;90.40;;;;;;1825946;77;20197;-92
2021/06/28 11:57:04;;;;;;;;;;;30.10;90.60;;;;;;1897317;73;20247;-91
2021/06/28 11:59:36;;;;;;;;;;;30.10;90.60;;;;;;1849611;75;20192;-90
2021/06/28 12:02:06;;;;;;;;;;;30.10;90.50;;;;;;1822087;76;20265;-91
2021/06/28 12:04:38;;;;;;;;;;;30.00;90.60;;;;;;1824412;76;20174;-88
2021/06/28 12:07:08;;;;;;;;;;;30.00;90.80;;;;;;1822607;76;20211;-90
2021/06/28 12:09:48;;;;;;;;;;;30.00;90.80;;;;;;1820570;76;21116;-91
2021/06/28 12:12:12;;;;;;;;;;;30.00;90.90;;;;;;1846635;75;20195;-90
2021/06/28 12:14:43;;;;;;;;;;;29.90;91.00;;;;;;1852411;74;20226;-91
2021/06/28 12:17:19;;;;;;;;;;;29.90;91.20;;;;;;1846818;75;20206;-91
2021/06/28 12:19:51;;;;;;;;;;;29.90;91.30;;;;;;1833633;76;20222;-91
2021/06/28 12:22:44;;;;;;;;;;;29.90;91.30;;;;;;1826183;77;20177;-91
2021/06/28 12:27:42;;;;;;;;;;;29.80;91.40;;;;;;1826285;77;20263;-90
2021/06/28 12:30:13;;;;;;;;;;;29.80;91.50;;;;;;1815102;78;20174;-91
2021/06/28 12:32:44;;;;;;;;;;;29.80;91.60;;;;;;1819705;77;20200;-90
2021/06/28 12:35:18;;;;;;;;;;;29.70;91.60;;;;;;1817509;77;20238;-90
2021/06/28 12:37:48;;;;;;;;;;;29.70;91.70;;;;;;1815534;77;20319;-88
2021/06/28 12:40:19;;;;;;;;;;;29.70;91.80;;;;;;1828518;77;20139;-89
2021/06/28 12:42:50;;;;;;;;;;;29.70;92.00;;;;;;1819937;77;20588;-90
2021/06/28 12:45:21;;;;;;;;;;;29.70;92.30;;;;;;1827653;77;20193;-91
2021/06/28 12:47:54;;;;;;;;;;;29.60;92.60;;;;;;1824249;77;20209;-91
2021/06/28 12:50:27;;;;;;;;;;;29.60;92.70;;;;;;1819064;77;20193;-91
2021/06/28 12:52:58;;;;;;;;;;;29.60;92.80;;;;;;1824566;77;20179;-90
2021/06/28 12:55:29;;;;;;;;;;;29.60;93.00;;;;;;1798571;78;20495;-93
2021/06/28 12:58:00;;;;;;;;;;;29.60;93.00;;;;;;1804567;78;20144;-92
2021/06/28 13:00:34;;;;;;;;;;;29.50;93.10;;;;;;1794848;78;20175;-90
2021/06/28 13:03:10;;;;;;;;;;;29.50;93.10;;;;;;1795973;77;20199;-93
2021/06/28 13:05:40;;;;;;;;;;;29.50;93.30;;;;;;1851702;75;20235;-91
2021/06/28 13:08:10;;;;;;;;;;;29.50;93.40;;;;;;1864320;75;20175;-92
2021/06/28 13:10:40;;;;;;;;;;;29.40;93.40;;;;;;1892095;74;20201;-93
2021/06/28 13:13:12;;;;;;;;;;;29.40;93.40;;;;;;1885209;74;20171;-91
2021/06/28 13:15:51;;;;;;;;;;;29.40;93.50;;;;;;1865452;74;20508;-93
2021/06/28 13:18:17;;;;;;;;;;;29.40;93.60;;;;;;1891123;73;20183;-92
2021/06/28 13:20:50;;;;;;;;;;;29.40;93.60;;;;;;1843114;78;20135;-93
2021/06/28 13:23:21;;;;;;;;;;;29.30;93.60;;;;;;1853174;75;20238;-92
2021/06/28 13:25:52;;;;;;;;;;;29.40;94.10;;;;;;1851040;76;20203;-94
2021/06/28 13:28:23;;;;;;;;;;;29.30;93.70;;;;;;1889971;74;20121;-94
2021/06/28 13:30:54;;;;;;;;;;;29.30;93.70;;;;;;1890845;74;20192;-93
2021/06/28 13:33:39;;;;;;;;;;;;;;;;;;;;;
2021/06/28 13:36:09;;;;;;;;;;;29.30;93.70;;;;;;1862179;73;20292;-93
2021/06/28 13:38:40;;;;;;;;;;;29.30;93.60;;;;;;1893083;74;20269;-91
2021/06/28 13:41:19;;;;;;;;;;;29.30;93.50;;;;;;1881331;75;20156;-93
2021/06/28 13:43:55;;;;;;;;;;;29.30;93.60;;;;;;1883477;74;20206;-94
2021/06/28 13:46:26;;;;;;;;;;;29.20;93.50;;;;;;1897369;73;20165;-93
2021/06/28 13:48:57;;;;;;;;;;;29.20;93.60;;;;;;1898671;73;20433;-93
2021/06/28 13:51:29;;;;;;;;;;;29.20;93.60;;;;;;1889881;75;20163;-93
2021/06/28 13:54:01;;;;;;;;;;;29.20;93.60;;;;;;1868577;76;20309;-94
2021/06/28 13:56:34;;;;;;;;;;;29.10;93.10;;;;;;1879757;75;20479;-95
2021/06/28 13:59:08;;;;;;;;;;;29.10;92.80;;;;;;1890356;73;20209;-94
2021/06/28 14:01:55;;;;;;;;;;;29.10;92.40;;;;;;1887254;74;20184;-94
2021/06/28 14:04:33;;;;;;;;;;;29.00;92.40;;;;;;1890371;74;20183;-94
2021/06/28 14:07:03;;;;;;;;;;;28.90;92.10;;;;;;1847718;76;20433;-93
2021/06/28 14:09:33;;;;;;;;;;;28.90;92.00;;;;;;1908406;73;20207;-92
2021/06/28 14:12:08;;;;;;;;;;;28.80;92.20;;;;;;1888102;74;20134;-93
2021/06/28 14:14:38;;;;;;;;;;;28.80;92.00;;;;;;1836429;75;20116;-95
2021/06/28 14:17:08;;;;;;;;;;;28.70;91.70;;;;;;1882035;75;20263;-90
2021/06/28 14:19:39;;;;;;;;;;;28.70;91.80;;;;;;1848281;76;20228;-93
2021/06/28 14:22:09;;;;;;;;;;;28.60;92.00;;;;;;1896438;73;20508;-93
2021/06/28 14:24:41;;;;;;;;;;;28.60;91.90;;;;;;1911932;74;20480;-93
2021/06/28 14:27:11;;;;;;;;;;;28.60;91.70;;;;;;1875573;75;20203;-93
2021/06/28 14:29:41;;;;;;;;;;;28.60;91.80;;;;;;1886600;75;20126;-94
2021/06/28 14:32:10;;;;;;;;;;;28.50;91.70;;;;;;1909002;73;20200;-94
2021/06/28 14:34:41;;;;;;;;;;;28.50;91.80;;;;;;1895678;73;20141;-93
2021/06/28 14:37:12;;;;;;;;;;;28.40;91.90;;;;;;1879525;74;20125;-93
2021/06/28 14:39:42;;;;;;;;;;;28.40;92.00;;;;;;1866536;75;20209;-92
2021/06/28 14:42:25;;;;;;;;;;;28.40;92.20;;;;;;1849931;75;20243;-94
2021/06/28 14:44:45;;;;;;;;;;;28.40;92.00;;;;;;1838956;76;20214;-90
2021/06/28 14:47:19;;;;;;;;;;;28.30;92.20;;;;;;1868769;75;20225;-91